Time;durP1;ratioP1;P1;durP2;ratioP2;P2;SDS_P1;SDS_P2;PMS_P1;PMS_P2;Temp;Humidity;BMP_temperature;BMP_pressure;BME280_temperature;BME280_humidity;BME280_pressure;Samples;Min_cycle;Max_cycle;Signal;HPM_P1;HPM_P2
2024/01/04 00:01:26;;;;;;;29.98;12.70;;;;;;;;;;5036553;28;20480;-77
2024/01/04 00:03:51;;;;;;;27.92;11.65;;;;;;;;;;5031149;28;20531;-77
2024/01/04 00:06:20;;;;;;;27.33;11.40;;;;;;;;;;5031142;28;20025;-77
2024/01/04 00:08:46;;;;;;;29.70;13.00;;;;;;;;;;5015155;28;20107;-78
2024/01/04 00:11:11;;;;;;;30.55;11.55;;;;;;;;;;5035566;28;20497;-78
2024/01/04 00:13:37;;;;;;;31.75;13.02;;;;;;;;;;5000454;28;20048;-78
2024/01/04 00:16:02;;;;;;;35.30;16.30;;;;;;;;;;5032126;28;20480;-78
2024/01/04 00:18:28;;;;;;;25.88;11.90;;;;;;;;;;5031324;28;20493;-78
2024/01/04 00:20:53;;;;;;;28.80;13.95;;;;;;;;;;5035739;28;20029;-78
2024/01/04 00:23:19;;;;;;;36.15;16.20;;;;;;;;;;5014615;28;20492;-78
2024/01/04 00:25:44;;;;;;;27.83;12.27;;;;;;;;;;5016234;28;20109;-77
2024/01/04 00:28:10;;;;;;;30.38;15.15;;;;;;;;;;5033022;28;20073;-78
2024/01/04 00:30:36;;;;;;;26.80;13.20;;;;;;;;;;5018187;28;20025;-78
2024/01/04 00:33:01;;;;;;;28.88;11.27;;;;;;;;;;5016411;28;20037;-78
2024/01/04 00:35:27;;;;;;;26.92;12.95;;;;;;;;;;5036125;28;20028;-77
2024/01/04 00:37:53;;;;;;;27.95;12.50;;;;;;;;;;5014347;28;20050;-77
2024/01/04 00:40:18;;;;;;;32.15;15.07;;;;;;;;;;5012741;28;20021;-77
2024/01/04 00:42:44;;;;;;;31.85;13.52;;;;;;;;;;4994540;28;20038;-77
2024/01/04 00:45:09;;;;;;;29.33;12.48;;;;;;;;;;5029336;28;20049;-77
2024/01/04 00:47:35;;;;;;;28.05;12.45;;;;;;;;;;5032400;28;20041;-76
2024/01/04 00:50:00;;;;;;;28.73;12.90;;;;;;;;;;5030336;28;20037;-78
2024/01/04 00:52:26;;;;;;;30.30;13.10;;;;;;;;;;5031174;28;20048;-77
2024/01/04 00:54:51;;;;;;;26.10;12.05;;;;;;;;;;5025490;28;20025;-76
2024/01/04 00:57:17;;;;;;;24.42;11.02;;;;;;;;;;5030014;28;20032;-77
2024/01/04 00:59:43;;;;;;;27.27;11.60;;;;;;;;;;5034779;28;20057;-78
2024/01/04 01:02:08;;;;;;;24.33;10.75;;;;;;;;;;5013325;28;20049;-76
2024/01/04 01:04:35;;;;;;;26.08;12.77;;;;;;;;;;5011233;28;20026;-77
2024/01/04 01:07:02;;;;;;;27.40;13.13;;;;;;;;;;5006686;28;20033;-77
2024/01/04 01:09:28;;;;;;;26.38;11.77;;;;;;;;;;5029430;28;20029;-77
2024/01/04 01:11:53;;;;;;;26.38;12.23;;;;;;;;;;5030952;28;20060;-77
2024/01/04 01:14:19;;;;;;;28.52;12.13;;;;;;;;;;5030767;28;20472;-76
2024/01/04 01:16:44;;;;;;;27.65;11.85;;;;;;;;;;4997097;28;20511;-77
2024/01/04 01:19:10;;;;;;;30.77;12.27;;;;;;;;;;5014793;28;20032;-77
2024/01/04 01:21:35;;;;;;;23.15;10.65;;;;;;;;;;5029699;28;20040;-77
2024/01/04 01:24:00;;;;;;;27.25;10.50;;;;;;;;;;5012185;28;20055;-77
2024/01/04 01:26:26;;;;;;;24.48;10.70;;;;;;;;;;5013289;28;20096;-77
2024/01/04 01:28:52;;;;;;;24.10;10.02;;;;;;;;;;5033321;28;20033;-77
2024/01/04 01:31:17;;;;;;;26.60;11.27;;;;;;;;;;5030994;28;20068;-77
2024/01/04 01:33:44;;;;;;;22.63;10.73;;;;;;;;;;5010577;28;20049;-76
2024/01/04 01:36:10;;;;;;;25.30;10.30;;;;;;;;;;5008247;28;20029;-77
2024/01/04 01:38:35;;;;;;;21.80;10.02;;;;;;;;;;5015073;28;20535;-81
2024/01/04 01:41:01;;;;;;;24.33;10.52;;;;;;;;;;5031454;28;20041;-80
2024/01/04 01:43:26;;;;;;;26.58;10.98;;;;;;;;;;5011343;28;20037;-83
2024/01/04 01:45:52;;;;;;;28.23;11.27;;;;;;;;;;5024950;28;20060;-82
2024/01/04 01:48:17;;;;;;;22.10;10.45;;;;;;;;;;5012996;28;20408;-81
2024/01/04 01:50:43;;;;;;;22.52;10.75;;;;;;;;;;5032001;28;20041;-81
2024/01/04 01:53:08;;;;;;;24.83;11.18;;;;;;;;;;5030107;28;20036;-81
2024/01/04 01:55:34;;;;;;;24.98;11.02;;;;;;;;;;5013659;28;20044;-81
2024/01/04 01:57:59;;;;;;;25.85;11.35;;;;;;;;;;5017414;28;20021;-81
2024/01/04 02:00:25;;;;;;;26.05;11.68;;;;;;;;;;5012425;28;20064;-81
2024/01/04 02:02:50;;;;;;;20.10;10.23;;;;;;;;;;5031164;28;20100;-81
2024/01/04 02:05:16;;;;;;;19.35;10.13;;;;;;;;;;5029875;28;20044;-81
2024/01/04 02:07:45;;;;;;;29.88;11.50;;;;;;;;;;5029636;28;20025;-80
2024/01/04 02:10:11;;;;;;;25.05;10.38;;;;;;;;;;5010058;28;20129;-80
2024/01/04 02:12:36;;;;;;;25.58;10.65;;;;;;;;;;5018901;28;20152;-81
2024/01/04 02:15:02;;;;;;;24.08;10.82;;;;;;;;;;5029550;28;20036;-81
2024/01/04 02:17:28;;;;;;;22.80;9.40;;;;;;;;;;5016082;28;20048;-81
2024/01/04 02:19:54;;;;;;;27.02;11.85;;;;;;;;;;5011839;28;20029;-82
2024/01/04 02:22:19;;;;;;;29.55;12.07;;;;;;;;;;5029905;28;20429;-81
2024/01/04 02:24:45;;;;;;;22.63;10.73;;;;;;;;;;5030782;28;20576;-82
2024/01/04 02:27:13;;;;;;;27.88;10.73;;;;;;;;;;5023572;28;20480;-81
2024/01/04 02:29:39;;;;;;;26.10;10.95;;;;;;;;;;5028580;28;20037;-80
2024/01/04 02:32:05;;;;;;;26.65;11.57;;;;;;;;;;5003681;28;20022;-80
2024/01/04 02:34:30;;;;;;;22.95;10.82;;;;;;;;;;5029595;28;20041;-81
2024/01/04 02:36:56;;;;;;;22.73;10.80;;;;;;;;;;5018458;28;20528;-80
2024/01/04 02:39:22;;;;;;;29.00;12.15;;;;;;;;;;5026322;28;20036;-80
2024/01/04 02:41:47;;;;;;;24.25;10.73;;;;;;;;;;5019245;28;20022;-80
2024/01/04 02:44:13;;;;;;;22.45;10.73;;;;;;;;;;5030830;28;20103;-80
2024/01/04 02:46:38;;;;;;;25.98;10.75;;;;;;;;;;5043471;28;20033;-80
2024/01/04 02:49:04;;;;;;;27.33;10.95;;;;;;;;;;5038164;28;20452;-80
2024/01/04 02:51:29;;;;;;;24.60;10.90;;;;;;;;;;5037548;28;20104;-81
2024/01/04 02:53:55;;;;;;;28.90;10.52;;;;;;;;;;5029609;28;20033;-81
2024/01/04 02:56:21;;;;;;;25.65;11.35;;;;;;;;;;5009761;28;20401;-81
2024/01/04 02:58:47;;;;;;;21.15;11.30;;;;;;;;;;5029821;28;20035;-81
2024/01/04 03:01:19;;;;;;;23.63;11.45;;;;;;;;;;5026657;28;20071;-81
2024/01/04 03:03:45;;;;;;;23.80;10.75;;;;;;;;;;5027317;28;20044;-81
2024/01/04 03:06:10;;;;;;;26.15;11.70;;;;;;;;;;5021397;28;20474;-82
2024/01/04 03:08:36;;;;;;;28.27;11.27;;;;;;;;;;5031864;28;20421;-80
2024/01/04 03:11:01;;;;;;;25.98;11.30;;;;;;;;;;5030062;28;20038;-81
2024/01/04 03:13:27;;;;;;;18.77;10.05;;;;;;;;;;5012030;28;20038;-80
2024/01/04 03:15:52;;;;;;;29.23;11.15;;;;;;;;;;5009167;28;20076;-80
2024/01/04 03:18:18;;;;;;;26.50;10.43;;;;;;;;;;5023986;28;20155;-80
2024/01/04 03:20:43;;;;;;;22.80;9.68;;;;;;;;;;5041570;28;20022;-81
2024/01/04 03:23:09;;;;;;;24.00;10.48;;;;;;;;;;5042528;28;20052;-80
2024/01/04 03:25:34;;;;;;;23.95;10.68;;;;;;;;;;5030058;28;20033;-80
2024/01/04 03:28:00;;;;;;;21.30;10.95;;;;;;;;;;5030121;28;20041;-81
2024/01/04 03:30:25;;;;;;;22.15;10.05;;;;;;;;;;5032217;28;20032;-81
2024/01/04 03:32:50;;;;;;;20.63;9.80;;;;;;;;;;5033806;28;20495;-81
2024/01/04 03:35:16;;;;;;;22.85;10.20;;;;;;;;;;5033650;28;20096;-81
2024/01/04 03:37:41;;;;;;;25.40;10.95;;;;;;;;;;5032926;28;20037;-81
2024/01/04 03:40:07;;;;;;;19.70;9.88;;;;;;;;;;5034898;28;20034;-81
2024/01/04 03:42:33;;;;;;;23.08;10.98;;;;;;;;;;5036530;28;20052;-81
2024/01/04 03:44:58;;;;;;;26.33;10.65;;;;;;;;;;5035001;28;20542;-80
2024/01/04 03:47:24;;;;;;;20.70;10.23;;;;;;;;;;5034617;28;20037;-80
2024/01/04 03:49:49;;;;;;;27.50;11.00;;;;;;;;;;5022453;28;20037;-81
2024/01/04 03:52:14;;;;;;;22.83;10.20;;;;;;;;;;5013384;28;20431;-81
2024/01/04 03:54:40;;;;;;;23.35;10.25;;;;;;;;;;5042450;28;20031;-81
2024/01/04 03:57:05;;;;;;;22.02;10.55;;;;;;;;;;5037421;28;20029;-81
2024/01/04 03:59:31;;;;;;;24.95;10.57;;;;;;;;;;5036900;28;20025;-82
2024/01/04 04:01:57;;;;;;;21.80;10.35;;;;;;;;;;5031772;28;20125;-81
2024/01/04 04:04:22;;;;;;;23.30;10.30;;;;;;;;;;5032733;28;20029;-81
2024/01/04 04:06:48;;;;;;;25.77;11.68;;;;;;;;;;5029842;28;20037;-81
2024/01/04 04:09:13;;;;;;;33.65;12.00;;;;;;;;;;5031530;28;20439;-80
2024/01/04 04:11:38;;;;;;;24.30;11.63;;;;;;;;;;5033051;28;20034;-81
2024/01/04 04:14:04;;;;;;;23.33;11.00;;;;;;;;;;5033189;28;20480;-81
2024/01/04 04:16:29;;;;;;;22.45;10.45;;;;;;;;;;5032691;28;20048;-81
2024/01/04 04:18:55;;;;;;;30.85;11.52;;;;;;;;;;5015569;28;20022;-81
2024/01/04 04:21:21;;;;;;;23.30;10.30;;;;;;;;;;5032984;28;20099;-81
2024/01/04 04:23:49;;;;;;;25.17;10.95;;;;;;;;;;5031703;28;20022;-81
2024/01/04 04:26:21;;;;;;;25.13;11.35;;;;;;;;;;5031682;28;20480;-80
2024/01/04 04:28:49;;;;;;;23.13;11.15;;;;;;;;;;5031557;28;20034;-81
2024/01/04 04:31:15;;;;;;;26.23;11.90;;;;;;;;;;5031951;28;20097;-81
2024/01/04 04:33:41;;;;;;;28.08;10.70;;;;;;;;;;5032925;28;20159;-81
2024/01/04 04:36:07;;;;;;;27.10;11.00;;;;;;;;;;5030816;28;20428;-82
2024/01/04 04:38:35;;;;;;;23.35;9.93;;;;;;;;;;5019154;28;20544;-81
2024/01/04 04:41:01;;;;;;;25.60;10.27;;;;;;;;;;5030169;28;20025;-81
2024/01/04 04:43:27;;;;;;;23.40;10.38;;;;;;;;;;5032808;28;20029;-81
2024/01/04 04:45:52;;;;;;;21.58;9.77;;;;;;;;;;5031138;28;20046;-81
2024/01/04 04:48:18;;;;;;;22.00;10.25;;;;;;;;;;5034318;28;20030;-81
2024/01/04 04:50:43;;;;;;;30.75;10.88;;;;;;;;;;5015183;28;20032;-81
2024/01/04 04:53:09;;;;;;;24.55;10.27;;;;;;;;;;5033462;28;20137;-81
2024/01/04 04:55:34;;;;;;;32.25;11.48;;;;;;;;;;5030315;28;20140;-81
2024/01/04 04:58:00;;;;;;;20.77;10.18;;;;;;;;;;5015129;28;20037;-82
2024/01/04 05:00:27;;;;;;;24.42;10.70;;;;;;;;;;5034769;28;20088;-81
2024/01/04 05:02:52;;;;;;;28.80;9.82;;;;;;;;;;5033530;28;20073;-81
2024/01/04 05:05:18;;;;;;;24.35;10.18;;;;;;;;;;5026580;28;20044;-81
2024/01/04 05:07:43;;;;;;;25.38;10.90;;;;;;;;;;5020169;28;20026;-81
2024/01/04 05:10:09;;;;;;;24.92;10.32;;;;;;;;;;5032008;28;20029;-81
2024/01/04 05:12:34;;;;;;;31.05;11.15;;;;;;;;;;5032112;28;20029;-81
2024/01/04 05:15:00;;;;;;;29.63;11.57;;;;;;;;;;5031249;28;20025;-81
2024/01/04 05:17:25;;;;;;;24.88;11.43;;;;;;;;;;5033021;28;20025;-81
2024/01/04 05:19:51;;;;;;;25.60;10.63;;;;;;;;;;5013395;28;20017;-81
2024/01/04 05:22:16;;;;;;;25.23;10.52;;;;;;;;;;5014217;28;20128;-81
2024/01/04 05:24:42;;;;;;;26.55;10.85;;;;;;;;;;5025137;28;20411;-81
2024/01/04 05:27:07;;;;;;;34.90;11.60;;;;;;;;;;5034501;28;20038;-81
2024/01/04 05:29:33;;;;;;;28.52;10.70;;;;;;;;;;5030715;28;20072;-81
2024/01/04 05:31:59;;;;;;;37.40;10.60;;;;;;;;;;5029764;28;20106;-81
2024/01/04 05:34:25;;;;;;;31.33;11.30;;;;;;;;;;5033589;28;20029;-80
2024/01/04 05:36:51;;;;;;;26.73;10.70;;;;;;;;;;5035625;28;20033;-81
2024/01/04 05:39:16;;;;;;;25.65;11.10;;;;;;;;;;5029880;28;20171;-81
2024/01/04 05:41:42;;;;;;;25.00;11.35;;;;;;;;;;5031604;28;20036;-82
2024/01/04 05:44:07;;;;;;;24.98;10.18;;;;;;;;;;5030967;28;20043;-81
2024/01/04 05:46:33;;;;;;;28.90;11.00;;;;;;;;;;5031469;28;20396;-82
2024/01/04 05:48:59;;;;;;;28.85;11.85;;;;;;;;;;5031087;28;20036;-82
2024/01/04 05:51:25;;;;;;;33.85;10.73;;;;;;;;;;5030227;28;20034;-81
2024/01/04 05:53:51;;;;;;;27.33;10.20;;;;;;;;;;5028798;28;20029;-81
2024/01/04 05:56:17;;;;;;;23.00;9.75;;;;;;;;;;5024563;28;20041;-81
2024/01/04 05:58:43;;;;;;;31.15;10.38;;;;;;;;;;5030755;28;20033;-81
2024/01/04 06:01:08;;;;;;;30.23;11.38;;;;;;;;;;5029195;28;20049;-82
2024/01/04 06:03:33;;;;;;;27.23;10.88;;;;;;;;;;5038137;28;20025;-81
2024/01/04 06:05:59;;;;;;;25.48;11.43;;;;;;;;;;5031043;28;20041;-82
2024/01/04 06:08:24;;;;;;;24.73;10.65;;;;;;;;;;5030034;28;20029;-80
2024/01/04 06:10:50;;;;;;;28.67;10.95;;;;;;;;;;5031148;28;20116;-81
2024/01/04 06:13:15;;;;;;;30.13;10.88;;;;;;;;;;5030813;28;20499;-80
2024/01/04 06:15:41;;;;;;;27.60;10.68;;;;;;;;;;5033483;28;20103;-81
2024/01/04 06:18:08;;;;;;;27.25;9.95;;;;;;;;;;5032963;28;20079;-81
2024/01/04 06:20:33;;;;;;;26.98;11.00;;;;;;;;;;5029131;28;20030;-81
2024/01/04 06:22:58;;;;;;;26.50;11.63;;;;;;;;;;5029454;28;20075;-81
2024/01/04 06:25:26;;;;;;;23.90;10.00;;;;;;;;;;5033211;28;20083;-81
2024/01/04 06:27:51;;;;;;;23.90;10.02;;;;;;;;;;5030532;28;20152;-81
2024/01/04 06:30:17;;;;;;;30.98;11.32;;;;;;;;;;5033018;28;20041;-81
2024/01/04 06:32:42;;;;;;;27.45;10.75;;;;;;;;;;5029518;28;20037;-81
2024/01/04 06:35:08;;;;;;;28.35;11.10;;;;;;;;;;5012450;28;20107;-81
2024/01/04 06:37:33;;;;;;;24.90;11.70;;;;;;;;;;5013590;28;20039;-82
2024/01/04 06:39:58;;;;;;;29.30;11.35;;;;;;;;;;5029910;28;20399;-82
2024/01/04 06:42:24;;;;;;;29.75;11.73;;;;;;;;;;5024353;28;20033;-82
2024/01/04 06:44:50;;;;;;;29.75;11.02;;;;;;;;;;5012327;28;20059;-80
2024/01/04 06:47:15;;;;;;;28.83;10.70;;;;;;;;;;5035202;28;20119;-81
2024/01/04 06:49:41;;;;;;;25.77;10.02;;;;;;;;;;5030548;28;20056;-81
2024/01/04 06:52:06;;;;;;;31.35;11.30;;;;;;;;;;5030684;28;20022;-82
2024/01/04 06:54:32;;;;;;;28.67;11.00;;;;;;;;;;5012093;28;20056;-81
2024/01/04 06:56:58;;;;;;;31.90;11.02;;;;;;;;;;5030479;28;20497;-81
2024/01/04 06:59:23;;;;;;;30.10;10.52;;;;;;;;;;5035877;28;20033;-81
2024/01/04 07:01:49;;;;;;;23.33;10.55;;;;;;;;;;5035113;28;20053;-81
2024/01/04 07:04:15;;;;;;;26.38;10.02;;;;;;;;;;5010744;28;20184;-82
2024/01/04 07:06:40;;;;;;;26.25;10.07;;;;;;;;;;5024899;28;20473;-81
2024/01/04 07:09:06;;;;;;;25.33;10.63;;;;;;;;;;5032631;28;20037;-82
2024/01/04 07:11:31;;;;;;;33.78;11.10;;;;;;;;;;5032699;28;20028;-81
2024/01/04 07:13:57;;;;;;;26.85;11.20;;;;;;;;;;5032324;28;20041;-82
2024/01/04 07:16:22;;;;;;;34.15;10.40;;;;;;;;;;5016429;28;20036;-81
2024/01/04 07:18:48;;;;;;;30.65;10.43;;;;;;;;;;5033487;28;20041;-81
2024/01/04 07:21:13;;;;;;;28.23;10.57;;;;;;;;;;5034358;28;20083;-81
2024/01/04 07:23:39;;;;;;;23.65;9.52;;;;;;;;;;5016245;28;20583;-82
2024/01/04 07:26:06;;;;;;;25.73;10.63;;;;;;;;;;5033165;28;20048;-82
2024/01/04 07:28:32;;;;;;;26.10;11.15;;;;;;;;;;5016010;28;20499;-82
2024/01/04 07:30:57;;;;;;;31.90;11.00;;;;;;;;;;5033858;28;20063;-81
2024/01/04 07:33:26;;;;;;;36.15;12.07;;;;;;;;;;5031948;28;20032;-82
2024/01/04 07:35:51;;;;;;;28.95;12.40;;;;;;;;;;5033842;28;20052;-82
2024/01/04 07:38:17;;;;;;;22.42;10.00;;;;;;;;;;5031954;28;20069;-81
2024/01/04 07:40:42;;;;;;;30.77;9.95;;;;;;;;;;5033303;28;20033;-82
2024/01/04 07:43:08;;;;;;;27.17;10.25;;;;;;;;;;5032661;28;20041;-82
2024/01/04 07:45:33;;;;;;;32.85;10.60;;;;;;;;;;5033022;28;20508;-81
2024/01/04 07:48:02;;;;;;;36.58;10.65;;;;;;;;;;5031593;28;20041;-82
2024/01/04 07:50:27;;;;;;;28.40;9.63;;;;;;;;;;5038014;28;20021;-81
2024/01/04 07:52:52;;;;;;;25.08;9.25;;;;;;;;;;5043762;28;20033;-82
2024/01/04 07:55:20;;;;;;;22.92;10.43;;;;;;;;;;5028803;28;20021;-83
2024/01/04 07:57:45;;;;;;;33.53;10.32;;;;;;;;;;5024396;28;20128;-82
2024/01/04 08:00:11;;;;;;;30.58;10.70;;;;;;;;;;5033161;28;20527;-82
2024/01/04 08:02:39;;;;;;;25.27;10.25;;;;;;;;;;5039408;28;20029;-82
2024/01/04 08:05:05;;;;;;;25.55;10.25;;;;;;;;;;5032323;28;20376;-82
2024/01/04 08:07:30;;;;;;;28.05;9.48;;;;;;;;;;5032375;28;20030;-82
2024/01/04 08:09:56;;;;;;;43.35;14.00;;;;;;;;;;5031733;28;20116;-82
2024/01/04 08:12:21;;;;;;;32.75;10.45;;;;;;;;;;5035583;28;20052;-81
2024/01/04 08:14:47;;;;;;;22.58;9.90;;;;;;;;;;5035472;28;20029;-82
2024/01/04 08:17:12;;;;;;;22.58;8.75;;;;;;;;;;5034834;28;20063;-81
2024/01/04 08:19:38;;;;;;;24.38;10.90;;;;;;;;;;5033016;28;20124;-81
2024/01/04 08:22:03;;;;;;;22.98;10.35;;;;;;;;;;5031799;28;20045;-82
2024/01/04 08:24:29;;;;;;;31.23;11.00;;;;;;;;;;5031921;28;20079;-82
2024/01/04 08:26:54;;;;;;;26.70;10.55;;;;;;;;;;5034903;28;20033;-82
2024/01/04 08:29:20;;;;;;;28.23;9.43;;;;;;;;;;5031548;28;20480;-82
2024/01/04 08:31:45;;;;;;;21.48;10.57;;;;;;;;;;5032914;28;20025;-81
2024/01/04 08:34:11;;;;;;;31.27;11.32;;;;;;;;;;5031038;28;20033;-81
2024/01/04 08:36:37;;;;;;;29.45;10.00;;;;;;;;;;5020136;28;20403;-81
2024/01/04 08:39:03;;;;;;;22.02;9.35;;;;;;;;;;5034361;28;20083;-81
2024/01/04 08:41:29;;;;;;;24.50;9.52;;;;;;;;;;5037269;28;20396;-82
2024/01/04 08:43:56;;;;;;;24.70;9.63;;;;;;;;;;5034905;28;20026;-82
2024/01/04 08:46:22;;;;;;;21.80;9.30;;;;;;;;;;5033351;28;20063;-82
2024/01/04 08:48:47;;;;;;;22.90;9.75;;;;;;;;;;5031115;28;20033;-81
2024/01/04 08:51:13;;;;;;;30.83;9.63;;;;;;;;;;5032135;28;20035;-81
2024/01/04 08:53:38;;;;;;;27.35;10.10;;;;;;;;;;5036923;28;20029;-81
2024/01/04 08:56:08;;;;;;;27.63;10.10;;;;;;;;;;5016038;28;20044;-81
2024/01/04 08:58:34;;;;;;;21.17;9.70;;;;;;;;;;5032207;28;20045;-82
2024/01/04 09:01:00;;;;;;;28.98;8.27;;;;;;;;;;5036057;28;20478;-81
2024/01/04 09:03:25;;;;;;;23.45;9.15;;;;;;;;;;5014665;28;20032;-81
2024/01/04 09:05:50;;;;;;;45.80;10.32;;;;;;;;;;5030489;28;20037;-81
2024/01/04 09:08:16;;;;;;;22.45;8.18;;;;;;;;;;5031619;28;20500;-81
2024/01/04 09:10:41;;;;;;;28.95;8.98;;;;;;;;;;5013795;28;20025;-81
2024/01/04 09:13:07;;;;;;;23.95;9.35;;;;;;;;;;5030598;28;20543;-82
2024/01/04 09:15:32;;;;;;;25.30;9.18;;;;;;;;;;5031589;28;20040;-82
2024/01/04 09:17:58;;;;;;;17.50;7.55;;;;;;;;;;5030755;28;20079;-81
2024/01/04 09:20:24;;;;;;;23.42;10.20;;;;;;;;;;5029952;28;20345;-81
2024/01/04 09:22:50;;;;;;;26.10;8.57;;;;;;;;;;5013759;28;20026;-82
2024/01/04 09:25:15;;;;;;;24.35;8.32;;;;;;;;;;5030196;28;20111;-81
2024/01/04 09:27:41;;;;;;;27.77;8.95;;;;;;;;;;5034248;28;20369;-81
2024/01/04 09:30:07;;;;;;;56.97;19.63;;;;;;;;;;5030605;28;20496;-81
2024/01/04 09:32:32;;;;;;;22.40;9.07;;;;;;;;;;5042702;28;20435;-82
2024/01/04 09:34:57;;;;;;;21.77;8.63;;;;;;;;;;5035762;28;20179;-82
2024/01/04 09:37:23;;;;;;;22.40;9.25;;;;;;;;;;5030324;28;20112;-81
2024/01/04 09:39:49;;;;;;;24.27;9.13;;;;;;;;;;5030608;28;20593;-82
2024/01/04 09:42:14;;;;;;;25.13;9.10;;;;;;;;;;5030017;28;20439;-83
2024/01/04 09:44:40;;;;;;;23.27;10.55;;;;;;;;;;5029624;28;20107;-82
2024/01/04 09:47:07;;;;;;;33.63;13.73;;;;;;;;;;5029871;28;20033;-82
2024/01/04 09:49:33;;;;;;;21.30;9.80;;;;;;;;;;5029811;28;20033;-82
2024/01/04 09:51:58;;;;;;;30.63;8.73;;;;;;;;;;5004710;28;20034;-82
2024/01/04 09:54:24;;;;;;;26.60;8.65;;;;;;;;;;5027403;28;20492;-82
2024/01/04 09:56:52;;;;;;;25.73;8.82;;;;;;;;;;5022609;28;20029;-82
2024/01/04 09:59:18;;;;;;;23.35;9.27;;;;;;;;;;5010559;28;20080;-81
2024/01/04 10:01:43;;;;;;;24.10;9.50;;;;;;;;;;5011121;28;20033;-82
2024/01/04 10:04:11;;;;;;;34.42;9.55;;;;;;;;;;5029380;28;20025;-82
2024/01/04 10:06:38;;;;;;;39.45;9.07;;;;;;;;;;5011007;28;20014;-82
2024/01/04 10:09:09;;;;;;;21.63;9.40;;;;;;;;;;5028558;28;20501;-83
2024/01/04 10:11:37;;;;;;;23.67;10.20;;;;;;;;;;5030349;28;20047;-82
2024/01/04 10:14:03;;;;;;;33.88;9.95;;;;;;;;;;5030251;28;20187;-83
2024/01/04 10:16:29;;;;;;;22.70;11.70;;;;;;;;;;5014176;28;20037;-84
2024/01/04 10:18:56;;;;;;;27.73;12.48;;;;;;;;;;5011593;28;20044;-83
2024/01/04 10:21:22;;;;;;;35.30;11.57;;;;;;;;;;5011225;28;20044;-82
2024/01/04 10:23:56;;;;;;;27.73;10.23;;;;;;;;;;5013738;28;20026;-82
2024/01/04 10:26:22;;;;;;;22.17;10.82;;;;;;;;;;5031712;28;20025;-83
2024/01/04 10:28:53;;;;;;;31.85;11.82;;;;;;;;;;5031474;28;20116;-83
2024/01/04 10:31:18;;;;;;;28.80;11.23;;;;;;;;;;5030808;28;20353;-83
2024/01/04 10:33:45;;;;;;;26.17;8.45;;;;;;;;;;5013432;28;20033;-82
2024/01/04 10:36:10;;;;;;;21.05;8.70;;;;;;;;;;5029859;28;20041;-82
2024/01/04 10:38:36;;;;;;;23.90;8.45;;;;;;;;;;5017035;28;20578;-82
2024/01/04 10:41:02;;;;;;;22.90;10.15;;;;;;;;;;5032617;28;20037;-82
2024/01/04 10:43:28;;;;;;;18.48;7.72;;;;;;;;;;5034199;28;20036;-81
2024/01/04 10:46:00;;;;;;;18.25;8.52;;;;;;;;;;5033933;28;20512;-82
2024/01/04 10:48:26;;;;;;;16.70;7.57;;;;;;;;;;5020546;28;20043;-82
2024/01/04 10:50:51;;;;;;;27.52;9.23;;;;;;;;;;5033997;28;20033;-81
2024/01/04 10:53:17;;;;;;;21.25;9.05;;;;;;;;;;5027338;28;20041;-81
2024/01/04 10:55:42;;;;;;;22.52;8.80;;;;;;;;;;5033354;28;20025;-82
2024/01/04 10:58:08;;;;;;;19.90;8.15;;;;;;;;;;5020262;28;20052;-82
2024/01/04 11:00:34;;;;;;;25.15;7.43;;;;;;;;;;5032913;28;20575;-82
2024/01/04 11:02:59;;;;;;;20.33;7.78;;;;;;;;;;5033186;28;20045;-82
2024/01/04 11:05:25;;;;;;;18.90;8.07;;;;;;;;;;5016357;28;20024;-83
2024/01/04 11:07:50;;;;;;;17.80;7.28;;;;;;;;;;5013550;28;20116;-82
2024/01/04 11:10:16;;;;;;;17.48;8.70;;;;;;;;;;5016250;28;20029;-81
2024/01/04 11:12:41;;;;;;;20.90;7.97;;;;;;;;;;5032859;28;20041;-83
2024/01/04 11:15:09;;;;;;;25.20;8.63;;;;;;;;;;5015044;28;20108;-81
2024/01/04 11:17:40;;;;;;;27.02;9.88;;;;;;;;;;5030884;28;20088;-81
2024/01/04 11:20:10;;;;;;;21.92;9.00;;;;;;;;;;5039376;28;20033;-82
2024/01/04 11:22:54;;;;;;;30.73;9.82;;;;;;;;;;5033224;28;20187;-82
2024/01/04 11:25:32;;;;;;;23.65;8.80;;;;;;;;;;5037412;28;20048;-82
2024/01/04 11:27:58;;;;;;;18.90;9.02;;;;;;;;;;5033683;28;20041;-82
2024/01/04 11:30:23;;;;;;;19.73;8.32;;;;;;;;;;5015657;28;20526;-83
2024/01/04 11:32:49;;;;;;;21.83;9.00;;;;;;;;;;5032300;28;20112;-83
2024/01/04 11:35:15;;;;;;;46.50;18.55;;;;;;;;;;5012570;28;20018;-83
2024/01/04 11:37:43;;;;;;;25.85;10.15;;;;;;;;;;5031554;28;20515;-82
2024/01/04 11:40:09;;;;;;;23.58;8.40;;;;;;;;;;5025169;28;20052;-82
2024/01/04 11:42:41;;;;;;;29.45;8.55;;;;;;;;;;5031669;28;20485;-82
2024/01/04 11:45:13;;;;;;;17.25;8.65;;;;;;;;;;5033152;28;20138;-82
2024/01/04 11:47:39;;;;;;;27.98;8.13;;;;;;;;;;5010262;28;20042;-81
2024/01/04 11:50:15;;;;;;;20.13;8.23;;;;;;;;;;5024499;28;20382;-82
2024/01/04 11:52:40;;;;;;;21.23;9.13;;;;;;;;;;5016030;28;20029;-82
2024/01/04 11:55:06;;;;;;;43.85;9.60;;;;;;;;;;5024795;28;20034;-82
2024/01/04 11:57:32;;;;;;;30.33;9.10;;;;;;;;;;5033577;28;20025;-82
2024/01/04 11:59:57;;;;;;;18.73;8.40;;;;;;;;;;5040751;28;20018;-83
2024/01/04 12:02:24;;;;;;;18.17;8.40;;;;;;;;;;5027490;28;20036;-83
2024/01/04 12:04:49;;;;;;;22.08;10.35;;;;;;;;;;5025421;28;20021;-83
2024/01/04 12:07:15;;;;;;;21.05;8.90;;;;;;;;;;5016626;28;20519;-81
2024/01/04 12:09:40;;;;;;;17.15;8.38;;;;;;;;;;5042523;28;20025;-82
2024/01/04 12:12:08;;;;;;;23.50;8.13;;;;;;;;;;5018748;28;20033;-82
2024/01/04 12:14:34;;;;;;;23.58;9.13;;;;;;;;;;5049379;28;20052;-82
2024/01/04 12:16:59;;;;;;;18.70;7.88;;;;;;;;;;5032909;28;20525;-83
2024/01/04 12:19:25;;;;;;;18.20;7.97;;;;;;;;;;5041114;28;20048;-82
2024/01/04 12:21:50;;;;;;;20.40;8.27;;;;;;;;;;5031232;28;20431;-82
2024/01/04 12:24:16;;;;;;;25.60;9.25;;;;;;;;;;5031611;28;20112;-82
2024/01/04 12:26:41;;;;;;;20.45;9.13;;;;;;;;;;5015207;28;20528;-83
2024/01/04 12:29:08;;;;;;;25.73;9.90;;;;;;;;;;5032403;28;20025;-82
2024/01/04 12:31:34;;;;;;;21.80;9.25;;;;;;;;;;5014905;28;20021;-83
2024/01/04 12:34:02;;;;;;;22.70;10.02;;;;;;;;;;5030508;28;20036;-82
2024/01/04 12:36:28;;;;;;;20.42;8.05;;;;;;;;;;5014615;28;20084;-83
2024/01/04 12:38:54;;;;;;;31.33;9.00;;;;;;;;;;5016043;28;20535;-82
2024/01/04 12:41:28;;;;;;;25.38;8.45;;;;;;;;;;5035157;28;20504;-81
2024/01/04 12:43:53;;;;;;;15.50;8.50;;;;;;;;;;5022108;28;20523;-82
2024/01/04 12:46:19;;;;;;;24.15;8.15;;;;;;;;;;5019886;28;20033;-82
2024/01/04 12:48:45;;;;;;;28.83;8.80;;;;;;;;;;5033721;28;20428;-82
2024/01/04 12:51:16;;;;;;;21.50;8.15;;;;;;;;;;5000739;28;20070;-82
2024/01/04 12:53:45;;;;;;;24.52;9.02;;;;;;;;;;5018637;28;20529;-82
2024/01/04 12:56:15;;;;;;;21.77;8.05;;;;;;;;;;5036803;28;20044;-82
2024/01/04 12:58:41;;;;;;;20.95;8.15;;;;;;;;;;5032099;28;20033;-82
2024/01/04 13:01:06;;;;;;;17.83;7.97;;;;;;;;;;5018821;28;20031;-82
2024/01/04 13:03:31;;;;;;;24.95;8.15;;;;;;;;;;4998152;28;20037;-82
2024/01/04 13:05:57;;;;;;;18.42;8.70;;;;;;;;;;5030284;28;20029;-82
2024/01/04 13:08:22;;;;;;;18.67;8.15;;;;;;;;;;5013506;28;20132;-83
2024/01/04 13:10:48;;;;;;;22.10;8.43;;;;;;;;;;5030086;28;20067;-82
2024/01/04 13:13:13;;;;;;;27.50;8.48;;;;;;;;;;5030245;28;20072;-83
2024/01/04 13:15:39;;;;;;;26.33;8.10;;;;;;;;;;5030367;28;20076;-82
2024/01/04 13:18:04;;;;;;;20.30;7.57;;;;;;;;;;5031760;28;20408;-81
2024/01/04 13:20:30;;;;;;;18.27;7.85;;;;;;;;;;5032294;28;20025;-82
2024/01/04 13:22:55;;;;;;;18.95;8.38;;;;;;;;;;5017679;28;20077;-83
2024/01/04 13:25:21;;;;;;;15.27;7.72;;;;;;;;;;5031964;28;20541;-83
2024/01/04 13:27:46;;;;;;;25.08;8.77;;;;;;;;;;5031315;28;20033;-81
2024/01/04 13:30:12;;;;;;;18.77;7.78;;;;;;;;;;5031029;28;20108;-82
2024/01/04 13:32:38;;;;;;;19.20;8.45;;;;;;;;;;5036971;28;20077;-82
2024/01/04 13:35:04;;;;;;;18.88;8.00;;;;;;;;;;5029965;28;20607;-83
2024/01/04 13:37:29;;;;;;;13.45;7.43;;;;;;;;;;5030242;28;20166;-83
2024/01/04 13:39:55;;;;;;;19.35;8.77;;;;;;;;;;5030189;28;20043;-82
2024/01/04 13:42:21;;;;;;;19.30;8.25;;;;;;;;;;5030594;28;20035;-82
2024/01/04 13:44:46;;;;;;;23.38;9.57;;;;;;;;;;5029679;28;20045;-83
2024/01/04 13:47:12;;;;;;;19.13;8.18;;;;;;;;;;5024058;28;20492;-82
2024/01/04 13:49:39;;;;;;;19.42;8.50;;;;;;;;;;5030530;28;20400;-82
2024/01/04 13:52:06;;;;;;;16.52;7.47;;;;;;;;;;5031281;28;20119;-82
2024/01/04 13:54:31;;;;;;;18.70;8.20;;;;;;;;;;5029995;28;20116;-83
2024/01/04 13:56:57;;;;;;;19.40;8.30;;;;;;;;;;5034436;28;20133;-82
2024/01/04 13:59:29;;;;;;;22.70;8.38;;;;;;;;;;5029660;28;20043;-81
2024/01/04 14:01:56;;;;;;;21.27;9.05;;;;;;;;;;5030324;28;20037;-81
2024/01/04 14:04:22;;;;;;;24.08;9.02;;;;;;;;;;5030266;28;20025;-81
2024/01/04 14:06:47;;;;;;;19.85;8.05;;;;;;;;;;5010596;28;20045;-81
2024/01/04 14:09:13;;;;;;;25.17;7.95;;;;;;;;;;5028776;28;20481;-82
2024/01/04 14:11:38;;;;;;;19.63;9.10;;;;;;;;;;5031228;28;20484;-82
2024/01/04 14:14:04;;;;;;;33.03;9.13;;;;;;;;;;5029985;28;20029;-81